Time;durP1;ratioP1;P1;durP2;ratioP2;P2;SDS_P1;SDS_P2;PMS_P1;PMS_P2;Temp;Humidity;BMP_temperature;BMP_pressure;BME280_temperature;BME280_humidity;BME280_pressure;Samples;Min_cycle;Max_cycle;Signal;HPM_P1;HPM_P2
2021/12/29 00:01:38;;;;;;;72.57;57.60;;;8.60;99.90;;;;;;5013572;28;20506;-83
2021/12/29 00:04:20;;;;;;;66.15;50.75;;;8.70;99.90;;;;;;5019420;28;20040;-83
2021/12/29 00:06:48;;;;;;;52.65;46.58;;;8.80;99.90;;;;;;5003707;28;20036;-83
2021/12/29 00:09:23;;;;;;;53.42;44.85;;;9.00;99.90;;;;;;5004191;28;20392;-83
2021/12/29 00:12:10;;;;;;;55.97;46.90;;;9.00;99.90;;;;;;5024170;28;20028;-82
2021/12/29 00:14:39;;;;;;;52.72;44.95;;;9.00;99.90;;;;;;5001645;28;20032;-82
2021/12/29 00:17:08;;;;;;;55.55;46.28;;;9.00;99.90;;;;;;5013705;28;20022;-82
2021/12/29 00:19:41;;;;;;;65.40;52.53;;;8.90;99.90;;;;;;5014596;28;20049;-83
2021/12/29 00:22:07;;;;;;;62.08;52.13;;;8.80;99.90;;;;;;4999961;28;20507;-83
2021/12/29 00:24:41;;;;;;;62.03;49.92;;;8.80;99.90;;;;;;5005113;28;20050;-82
2021/12/29 00:27:10;;;;;;;51.13;42.90;;;8.80;99.90;;;;;;5010438;28;20033;-82
2021/12/29 00:29:51;;;;;;;52.85;43.38;;;8.90;99.90;;;;;;5020354;28;20030;-82
2021/12/29 00:33:05;;;;;;;53.45;44.95;;;8.90;99.90;;;;;;5007407;28;20084;-82
2021/12/29 00:39:27;;;;;;;54.22;45.25;;;9.00;99.90;;;;;;4949817;28;20050;-82
2021/12/29 00:42:05;;;;;;;46.72;41.28;;;9.10;99.90;;;;;;4927524;29;20626;-83
2021/12/29 00:48:24;;;;;;;48.92;42.53;;;9.20;99.90;;;;;;4966327;28;20039;-81
2021/12/29 00:51:15;;;;;;;46.72;40.67;;;9.30;99.90;;;;;;5023021;28;20010;-83
2021/12/29 00:53:44;;;;;;;49.22;39.40;;;9.30;99.90;;;;;;4990983;28;20481;-81
2021/12/29 00:56:13;;;;;;;50.45;41.80;;;9.30;99.90;;;;;;5017966;28;20038;-81
2021/12/29 01:02:12;;;;;;;47.30;40.83;;;9.20;99.90;;;;;;4968560;28;20038;-82
2021/12/29 01:04:41;;;;;;;47.75;41.15;;;9.30;99.90;;;;;;5019546;28;20017;-81
2021/12/29 01:07:44;;;;;;;46.33;40.40;;;9.30;99.90;;;;;;5006022;28;20022;-81
2021/12/29 01:10:27;;;;;;;51.92;42.22;;;9.30;99.90;;;;;;4998937;28;20077;-81
2021/12/29 01:13:18;;;;;;;;;;;;;;;;;;;;;
2021/12/29 01:19:23;;;;;;;61.33;46.35;;;9.20;99.90;;;;;;4981020;28;20067;-82
2021/12/29 01:22:15;;;;;;;59.78;48.92;;;9.20;99.90;;;;;;4978279;28;20520;-81
2021/12/29 01:24:59;;;;;;;62.88;48.47;;;9.20;99.90;;;;;;4962594;28;20563;-81
2021/12/29 01:28:50;;;;;;;60.47;49.35;;;9.30;99.90;;;;;;4989353;28;20060;-82
2021/12/29 01:31:16;;;;;;;62.97;45.97;;;9.30;99.90;;;;;;4991055;28;20040;-82
2021/12/29 01:33:47;;;;;;;62.03;48.78;;;9.30;99.90;;;;;;4990366;28;20556;-81
2021/12/29 01:36:13;;;;;;;70.35;50.67;;;9.20;99.90;;;;;;4995406;28;20022;-82
2021/12/29 01:39:22;;;;;;;63.78;49.33;;;9.20;99.90;;;;;;5019136;28;20145;-81
2021/12/29 01:41:51;;;;;;;63.55;49.78;;;9.20;99.90;;;;;;5020385;28;20036;-82
2021/12/29 01:44:55;;;;;;;62.17;47.90;;;9.10;99.90;;;;;;4995435;28;20049;-82
2021/12/29 02:01:15;;;;;;;66.28;51.25;;;9.10;99.90;;;;;;4964905;28;20077;-84
2021/12/29 02:03:58;;;;;;;69.30;49.97;;;9.00;99.90;;;;;;5011960;28;20431;-84
2021/12/29 02:06:24;;;;;;;62.47;49.95;;;9.10;99.90;;;;;;5016868;28;20500;-83
2021/12/29 02:08:53;;;;;;;62.97;49.33;;;9.10;99.90;;;;;;5012520;28;20049;-83
2021/12/29 02:11:29;;;;;;;62.10;47.90;;;9.10;99.90;;;;;;5015595;28;20040;-84
2021/12/29 02:14:09;;;;;;;58.83;45.17;;;9.20;99.90;;;;;;4993959;28;21594;-84
2021/12/29 02:16:38;;;;;;;63.38;45.90;;;9.20;99.90;;;;;;5020967;28;20036;-84
2021/12/29 02:19:15;;;;;;;66.10;48.00;;;9.20;99.90;;;;;;5011091;28;20029;-83
2021/12/29 02:21:55;;;;;;;61.63;44.72;;;9.10;99.90;;;;;;5013569;28;20026;-84
2021/12/29 02:24:35;;;;;;;60.03;46.65;;;9.10;99.90;;;;;;5009323;28;20053;-84
2021/12/29 02:27:13;;;;;;;60.33;45.33;;;9.10;99.90;;;;;;5037225;28;20025;-81
2021/12/29 02:30:43;;;;;;;61.45;43.17;;;9.10;99.90;;;;;;5033883;28;20021;-82
2021/12/29 02:33:13;;;;;;;57.28;42.35;;;9.20;99.90;;;;;;5028433;28;20064;-81
2021/12/29 02:36:09;;;;;;;52.80;41.10;;;9.20;99.90;;;;;;5034424;28;20452;-82
2021/12/29 02:39:16;;;;;;;50.67;37.58;;;9.20;99.90;;;;;;5030494;28;20099;-82
2021/12/29 02:41:58;;;;;;;50.90;39.65;;;9.20;99.90;;;;;;5010386;28;20059;-81
2021/12/29 02:44:46;;;;;;;63.85;43.60;;;9.10;99.90;;;;;;5019068;28;20505;-82
2021/12/29 02:47:30;;;;;;;52.58;41.05;;;8.90;99.90;;;;;;5030682;28;20042;-82
2021/12/29 02:53:01;;;;;;;54.28;43.38;;;8.60;99.90;;;;;;5030238;28;20049;-82
2021/12/29 02:56:14;;;;;;;62.10;47.90;;;8.70;99.90;;;;;;5036296;28;20033;-81
2021/12/29 03:02:31;;;;;;;52.95;41.20;;;8.70;99.90;;;;;;4949521;28;20119;-82
2021/12/29 03:05:18;;;;;;;50.47;39.85;;;8.60;99.90;;;;;;4957679;28;20105;-82
2021/12/29 03:08:19;;;;;;;45.95;33.08;;;8.70;99.90;;;;;;4937397;29;20129;-83
2021/12/29 03:10:57;;;;;;;43.22;33.47;;;8.60;99.90;;;;;;4946992;28;20026;-83
2021/12/29 03:16:53;;;;;;;38.55;29.90;;;8.60;99.90;;;;;;4947575;28;20042;-83
2021/12/29 03:20:05;;;;;;;;;;;;;;;;;;;;;
2021/12/29 03:22:34;;;;;;;42.80;31.35;;;8.80;99.90;;;;;;5008735;28;20037;-82
2021/12/29 03:29:09;;;;;;;39.97;32.25;;;8.80;99.90;;;;;;4992294;28;20107;-84
2021/12/29 03:32:05;;;;;;;40.63;31.38;;;8.70;99.90;;;;;;5001731;28;20450;-82
2021/12/29 03:35:32;;;;;;;36.92;29.63;;;8.80;99.90;;;;;;5018205;28;20112;-83
2021/12/29 03:38:24;;;;;;;34.20;28.30;;;9.00;99.90;;;;;;5027920;28;20148;-83
2021/12/29 03:40:54;;;;;;;33.88;27.77;;;9.00;99.90;;;;;;5016103;28;20041;-83
2021/12/29 03:43:27;;;;;;;33.30;26.88;;;9.00;99.90;;;;;;5030913;28;20025;-83
2021/12/29 03:46:16;;;;;;;38.50;29.10;;;9.10;99.90;;;;;;5039904;28;20099;-83
2021/12/29 03:48:55;;;;;;;33.10;28.48;;;9.10;99.90;;;;;;5011903;28;20483;-82
2021/12/29 03:51:33;;;;;;;33.13;28.15;;;9.20;99.90;;;;;;5033010;28;20025;-81
2021/12/29 03:54:06;;;;;;;38.28;29.60;;;9.20;99.90;;;;;;5025845;28;20396;-83
2021/12/29 03:56:54;;;;;;;39.17;32.53;;;9.20;99.90;;;;;;5039519;28;20032;-82
2021/12/29 03:59:20;;;;;;;43.08;34.90;;;9.00;99.90;;;;;;5032547;28;20049;-82
2021/12/29 04:04:56;;;;;;;52.45;38.92;;;8.80;99.90;;;;;;4936322;29;20050;-82
2021/12/29 04:07:31;;;;;;;43.60;33.90;;;8.70;99.90;;;;;;4941021;29;20088;-82
2021/12/29 04:10:11;;;;;;;41.50;33.58;;;8.70;99.90;;;;;;5006592;28;20119;-82
2021/12/29 04:13:11;;;;;;;35.88;30.50;;;8.80;99.90;;;;;;5034534;28;20037;-81
2021/12/29 04:15:40;;;;;;;37.67;31.67;;;8.90;99.90;;;;;;5033804;28;20026;-82
2021/12/29 04:21:57;;;;;;;35.35;29.00;;;9.10;99.90;;;;;;4975300;28;20041;-82
2021/12/29 04:24:45;;;;;;;35.95;29.33;;;9.10;99.90;;;;;;4961639;28;20112;-82
2021/12/29 04:27:27;;;;;;;35.72;29.25;;;9.10;99.90;;;;;;5010930;28;20038;-82
2021/12/29 04:30:05;;;;;;;40.45;32.05;;;9.00;99.90;;;;;;5034654;28;20033;-82
2021/12/29 04:33:08;;;;;;;53.33;37.08;;;8.90;99.90;;;;;;5032642;28;20037;-83
2021/12/29 04:35:40;;;;;;;;;;;8.80;99.90;;;;;;4990730;28;20046;-82
2021/12/29 04:38:07;;;;;;;50.75;40.00;;;8.80;99.90;;;;;;5012822;28;19942;-83
2021/12/29 04:44:33;;;;;;;47.10;38.70;;;8.80;99.90;;;;;;5030886;28;20121;-81
2021/12/29 04:46:59;;;;;;;46.92;39.78;;;8.80;99.90;;;;;;5039207;28;20032;-83
2021/12/29 04:49:45;;;;;;;42.25;34.97;;;8.80;99.90;;;;;;5031626;28;20116;-82
2021/12/29 05:08:51;;;;;;;34.20;30.58;;;8.80;99.90;;;;;;4991261;28;21007;-82
2021/12/29 05:11:40;;;;;;;32.97;27.55;;;8.90;99.90;;;;;;5034618;28;20068;-82
2021/12/29 05:14:12;;;;;;;32.10;25.63;;;9.00;99.90;;;;;;5038037;28;20033;-82
2021/12/29 05:16:47;;;;;;;29.90;25.48;;;9.00;99.90;;;;;;5024229;28;20025;-82
2021/12/29 05:19:16;;;;;;;30.58;26.27;;;9.10;99.90;;;;;;5036297;28;20091;-83
2021/12/29 05:21:44;;;;;;;31.23;26.08;;;9.10;99.90;;;;;;5033548;28;20080;-82
2021/12/29 05:24:13;;;;;;;27.88;24.67;;;9.10;99.90;;;;;;5022611;28;20045;-83
2021/12/29 05:26:42;;;;;;;27.38;23.23;;;9.10;99.90;;;;;;5005932;28;20365;-83
2021/12/29 05:29:34;;;;;;;26.88;22.63;;;9.20;99.90;;;;;;5014903;28;20092;-83
2021/12/29 05:32:00;;;;;;;26.05;23.40;;;9.30;99.90;;;;;;4993941;28;20133;-83
2021/12/29 05:34:39;;;;;;;26.50;23.40;;;9.40;99.90;;;;;;5014208;28;20228;-83
2021/12/29 05:37:07;;;;;;;26.02;23.23;;;9.40;99.90;;;;;;5006624;28;20026;-83
2021/12/29 05:39:37;;;;;;;29.17;23.92;;;9.50;99.90;;;;;;5015039;28;20038;-83
2021/12/29 05:45:20;;;;;;;31.13;26.33;;;9.50;99.90;;;;;;4988703;28;20044;-82
2021/12/29 05:48:11;;;;;;;37.30;28.20;;;9.50;99.90;;;;;;5001510;28;20506;-82
2021/12/29 05:51:05;;;;;;;33.75;27.30;;;9.50;99.90;;;;;;5017872;28;20025;-83
2021/12/29 05:56:18;;;;;;;27.40;23.45;;;9.40;99.90;;;;;;5015093;28;20092;-83
2021/12/29 05:58:47;;;;;;;27.75;24.88;;;9.40;99.90;;;;;;5010364;28;20677;-83
2021/12/29 06:01:33;;;;;;;35.90;26.70;;;9.40;99.90;;;;;;5019665;28;20429;-82
2021/12/29 06:04:02;;;;;;;36.05;26.80;;;9.40;99.90;;;;;;5015074;28;20045;-83
2021/12/29 06:06:44;;;;;;;38.85;29.80;;;9.50;99.90;;;;;;5018239;28;20091;-83
2021/12/29 06:09:10;;;;;;;41.45;29.48;;;9.50;99.90;;;;;;5011298;28;20112;-83
2021/12/29 06:11:38;;;;;;;38.97;29.35;;;9.50;99.90;;;;;;5015668;28;20120;-82
2021/12/29 06:14:14;;;;;;;36.97;29.58;;;9.50;99.90;;;;;;5014320;28;20057;-82
2021/12/29 06:17:04;;;;;;;31.95;27.90;;;9.50;99.90;;;;;;5021303;28;20117;-82
2021/12/29 06:19:31;;;;;;;37.50;28.52;;;9.50;99.90;;;;;;5014242;28;20037;-83
2021/12/29 06:21:57;;;;;;;34.00;28.08;;;9.40;99.90;;;;;;5015640;28;20025;-83
2021/12/29 06:24:23;;;;;;;39.42;29.45;;;9.40;99.90;;;;;;5025520;28;20123;-83
2021/12/29 06:26:52;;;;;;;36.75;29.08;;;9.40;99.90;;;;;;5032223;28;20033;-82
2021/12/29 06:29:29;;;;;;;38.33;29.50;;;9.30;99.90;;;;;;5013147;28;20459;-83
2021/12/29 06:32:16;;;;;;;35.67;28.75;;;9.30;99.90;;;;;;5015332;28;20030;-82
2021/12/29 06:35:28;;;;;;;35.72;27.88;;;9.30;99.90;;;;;;5008350;28;20039;-82
2021/12/29 06:37:35;;;;;;;36.53;29.40;;;9.40;99.90;;;;;;5032234;28;20060;-83
2021/12/29 06:40:01;;;;;;;36.70;29.00;;;9.40;99.90;;;;;;5016449;28;20060;-83
2021/12/29 06:42:30;;;;;;;34.00;29.05;;;9.30;99.90;;;;;;5042266;28;20030;-82
2021/12/29 06:44:57;;;;;;;35.55;28.83;;;9.30;99.90;;;;;;5018014;28;20037;-82
2021/12/29 06:47:46;;;;;;;34.50;27.48;;;9.20;99.90;;;;;;5032523;28;20032;-83
2021/12/29 06:50:31;;;;;;;;;;;;;;;;;;;;;
2021/12/29 06:53:23;;;;;;;43.55;30.10;;;9.00;99.90;;;;;;5032646;28;20044;-82
2021/12/29 06:55:49;;;;;;;41.97;32.03;;;8.90;99.90;;;;;;5024527;28;20044;-82
2021/12/29 06:58:18;;;;;;;41.15;31.98;;;8.90;99.90;;;;;;5031427;28;20041;-82
2021/12/29 07:00:44;;;;;;;43.20;32.67;;;8.80;99.90;;;;;;5015079;28;20041;-82
2021/12/29 07:03:13;;;;;;;44.47;32.78;;;8.80;99.90;;;;;;5031234;28;20029;-81
2021/12/29 07:06:01;;;;;;;;;;;;;;;;;;;;;
2021/12/29 07:08:30;;;;;;;40.58;30.73;;;8.80;99.90;;;;;;5022879;28;20040;-83
2021/12/29 07:10:56;;;;;;;48.50;31.13;;;8.80;99.90;;;;;;5035639;28;20022;-83
2021/12/29 07:13:22;;;;;;;48.55;34.03;;;8.80;99.90;;;;;;5031250;28;20045;-83
2021/12/29 07:15:48;;;;;;;45.30;32.60;;;8.80;99.90;;;;;;5035126;28;20029;-80
2021/12/29 07:18:17;;;;;;;45.17;34.83;;;8.80;99.90;;;;;;5040173;28;20088;-79
2021/12/29 07:20:44;;;;;;;52.22;38.65;;;8.80;99.90;;;;;;5033356;28;20037;-86
2021/12/29 07:23:16;;;;;;;51.78;39.13;;;8.70;99.90;;;;;;5038907;28;20042;-81
2021/12/29 07:25:44;;;;;;;58.53;39.97;;;8.60;99.90;;;;;;5033246;28;20030;-81
2021/12/29 07:28:10;;;;;;;55.00;39.53;;;8.50;99.90;;;;;;5040137;28;20434;-81
2021/12/29 07:30:39;;;;;;;64.47;42.80;;;8.50;99.90;;;;;;5041292;28;20028;-81
2021/12/29 07:33:14;;;;;;;61.25;44.55;;;8.40;99.90;;;;;;4997548;28;20057;-81
2021/12/29 07:35:40;;;;;;;67.82;47.78;;;8.40;99.90;;;;;;5039285;28;20582;-81
2021/12/29 07:38:06;;;;;;;59.92;44.72;;;8.30;99.90;;;;;;5029828;28;20051;-81
2021/12/29 07:40:35;;;;;;;62.60;44.70;;;8.40;99.90;;;;;;5022129;28;20461;-81
2021/12/29 07:43:05;;;;;;;61.33;46.08;;;8.40;99.90;;;;;;5030942;28;20052;-81
2021/12/29 07:45:33;;;;;;;59.22;44.45;;;8.50;99.90;;;;;;5040606;28;20021;-82
2021/12/29 07:48:00;;;;;;;56.22;41.92;;;8.70;99.90;;;;;;5031519;28;20093;-81
2021/12/29 07:50:29;;;;;;;54.05;40.25;;;8.80;99.90;;;;;;5033381;28;20108;-81
2021/12/29 07:52:58;;;;;;;43.40;34.83;;;8.90;99.90;;;;;;5029687;28;20512;-81
2021/12/29 07:55:24;;;;;;;41.38;33.00;;;8.90;99.90;;;;;;5038871;28;20029;-81
2021/12/29 07:57:50;;;;;;;36.88;30.27;;;9.00;99.90;;;;;;5031259;28;20026;-81
2021/12/29 08:00:19;;;;;;;39.45;32.03;;;9.20;99.90;;;;;;5034363;28;20041;-80
2021/12/29 08:02:47;;;;;;;29.90;25.67;;;9.20;99.90;;;;;;5030693;28;20131;-81
2021/12/29 08:05:16;;;;;;;28.55;22.63;;;9.20;99.90;;;;;;5031481;28;20083;-81
2021/12/29 08:07:42;;;;;;;34.80;24.75;;;9.30;99.90;;;;;;5033365;28;20032;-81
2021/12/29 08:10:08;;;;;;;24.30;21.52;;;9.40;99.90;;;;;;5031703;28;20029;-81
2021/12/29 08:12:34;;;;;;;28.90;19.40;;;9.50;99.90;;;;;;5033210;28;20499;-82
2021/12/29 08:15:00;;;;;;;24.00;19.30;;;9.70;99.90;;;;;;5035908;28;20030;-82
2021/12/29 08:17:36;;;;;;;23.13;20.65;;;9.60;99.90;;;;;;5041523;28;20025;-81
2021/12/29 08:20:04;;;;;;;30.13;22.27;;;9.70;99.90;;;;;;5034181;28;20038;-80
2021/12/29 08:22:30;;;;;;;29.13;23.60;;;9.70;99.90;;;;;;5040229;28;20021;-81
2021/12/29 08:24:56;;;;;;;27.00;22.08;;;9.80;99.90;;;;;;5035728;28;20054;-81
2021/12/29 08:27:22;;;;;;;26.50;20.00;;;9.80;99.90;;;;;;5034315;28;20118;-81
2021/12/29 08:29:49;;;;;;;22.83;18.90;;;10.00;99.90;;;;;;5016918;28;20030;-81
2021/12/29 08:32:15;;;;;;;22.98;19.98;;;10.00;99.90;;;;;;5035622;28;20021;-81
2021/12/29 08:34:41;;;;;;;23.58;20.48;;;9.90;99.90;;;;;;5021048;28;20029;-81
2021/12/29 08:37:09;;;;;;;23.50;20.23;;;10.00;99.90;;;;;;5034032;28;20032;-81
2021/12/29 08:39:35;;;;;;;24.45;18.13;;;10.20;99.90;;;;;;5035477;28;20034;-81
2021/12/29 08:42:02;;;;;;;22.27;17.52;;;10.30;99.90;;;;;;5030556;28;20025;-81
2021/12/29 08:44:30;;;;;;;19.73;16.80;;;10.50;99.90;;;;;;5037278;28;20119;-80
2021/12/29 08:46:58;;;;;;;35.88;28.23;;;10.70;99.90;;;;;;5036984;28;20022;-79
2021/12/29 08:49:26;;;;;;;31.85;26.55;;;10.70;99.90;;;;;;5038259;28;20136;-82
2021/12/29 08:51:56;;;;;;;24.98;21.20;;;10.80;99.90;;;;;;5041859;28;20039;-80
2021/12/29 08:54:23;;;;;;;24.50;19.60;;;11.00;99.90;;;;;;5035968;28;20110;-80
2021/12/29 08:56:58;;;;;;;29.10;21.30;;;11.10;99.90;;;;;;5047225;28;20026;-80
2021/12/29 08:59:24;;;;;;;30.42;23.00;;;11.20;99.90;;;;;;5019038;28;20110;-80
2021/12/29 09:01:50;;;;;;;24.60;19.10;;;11.20;99.90;;;;;;5044755;28;20475;-80
2021/12/29 09:04:19;;;;;;;22.05;17.98;;;11.30;99.90;;;;;;5038482;28;20032;-80
2021/12/29 09:06:47;;;;;;;27.13;19.67;;;11.40;99.90;;;;;;5040817;28;20554;-80
2021/12/29 09:09:13;;;;;;;23.00;20.40;;;11.40;99.90;;;;;;5034399;28;20373;-80
2021/12/29 09:11:39;;;;;;;26.98;20.55;;;11.40;99.90;;;;;;5042393;28;20105;-82
2021/12/29 09:14:06;;;;;;;25.90;19.92;;;11.40;99.90;;;;;;5034819;28;20087;-80
2021/12/29 09:16:32;;;;;;;34.20;27.98;;;11.20;99.90;;;;;;5046346;28;20487;-81
2021/12/29 09:19:01;;;;;;;28.10;24.35;;;11.10;99.90;;;;;;5034733;28;20038;-82
2021/12/29 09:21:28;;;;;;;21.02;17.35;;;11.00;99.90;;;;;;5048840;28;20021;-82
2021/12/29 09:23:54;;;;;;;19.48;17.58;;;11.10;99.90;;;;;;5035736;28;20045;-82
2021/12/29 09:26:20;;;;;;;23.45;19.13;;;11.10;99.90;;;;;;5040374;28;20032;-81
2021/12/29 09:28:48;;;;;;;27.05;19.90;;;11.20;99.90;;;;;;5033054;28;20108;-82
2021/12/29 09:31:15;;;;;;;20.33;17.58;;;11.30;99.90;;;;;;5035499;28;20044;-81
2021/12/29 09:33:42;;;;;;;24.63;19.55;;;11.30;99.90;;;;;;5032404;28;20113;-81
2021/12/29 09:36:11;;;;;;;25.45;19.20;;;11.10;99.90;;;;;;5044025;28;20026;-82
2021/12/29 09:38:40;;;;;;;23.90;21.30;;;10.90;99.90;;;;;;5031835;28;20080;-82
2021/12/29 09:41:13;;;;;;;30.10;21.75;;;10.70;99.90;;;;;;5029259;28;20044;-81
2021/12/29 09:43:40;;;;;;;26.48;22.10;;;10.50;99.90;;;;;;5032905;28;20108;-82
2021/12/29 09:46:06;;;;;;;31.08;24.38;;;10.40;99.90;;;;;;5042864;28;20513;-79
2021/12/29 09:48:34;;;;;;;29.80;24.45;;;10.30;99.90;;;;;;5051119;28;20029;-81
2021/12/29 09:51:00;;;;;;;29.63;25.30;;;10.20;99.90;;;;;;5024353;28;20157;-81
2021/12/29 09:53:26;;;;;;;26.98;24.17;;;10.20;99.90;;;;;;5034401;28;20108;-82
2021/12/29 09:55:53;;;;;;;28.08;23.45;;;10.30;99.90;;;;;;5038718;28;20116;-82
2021/12/29 09:58:35;;;;;;;31.15;23.73;;;10.40;99.90;;;;;;5042571;28;20030;-81
2021/12/29 10:01:11;;;;;;;26.98;23.65;;;10.40;99.90;;;;;;5034575;28;20388;-80
2021/12/29 10:03:37;;;;;;;27.08;23.20;;;10.40;99.90;;;;;;5005672;28;20060;-80
2021/12/29 10:06:07;;;;;;;27.60;24.15;;;10.40;99.90;;;;;;5035043;28;20031;-80
2021/12/29 10:08:36;;;;;;;32.20;24.52;;;10.40;99.90;;;;;;5050492;28;20526;-80
2021/12/29 10:11:09;;;;;;;30.77;23.42;;;10.50;99.90;;;;;;5035346;28;20025;-80
2021/12/29 10:13:37;;;;;;;26.42;23.48;;;10.50;99.90;;;;;;5030431;28;20121;-79
2021/12/29 10:16:13;;;;;;;27.25;23.17;;;10.50;99.90;;;;;;5039557;28;20063;-80
2021/12/29 10:18:44;;;;;;;27.48;23.48;;;10.60;99.90;;;;;;5017939;28;20111;-80
2021/12/29 10:21:17;;;;;;;28.45;23.35;;;10.70;99.90;;;;;;5038635;28;20033;-81
2021/12/29 10:23:46;;;;;;;26.63;22.70;;;10.80;99.90;;;;;;4997423;28;20049;-80
2021/12/29 10:26:13;;;;;;;31.80;24.60;;;11.00;99.90;;;;;;5036421;28;20059;-80
2021/12/29 10:28:47;;;;;;;28.48;23.48;;;10.90;99.90;;;;;;5035514;28;20033;-80
2021/12/29 10:31:19;;;;;;;25.58;22.30;;;10.90;99.90;;;;;;5037744;28;20026;-81
2021/12/29 10:33:57;;;;;;;27.83;19.88;;;11.00;99.90;;;;;;5010657;28;20018;-81
2021/12/29 10:36:30;;;;;;;25.75;20.27;;;11.10;99.90;;;;;;5021313;28;20504;-81
2021/12/29 10:39:16;;;;;;;24.80;19.38;;;11.20;99.90;;;;;;5029775;28;20507;-81
2021/12/29 10:41:55;;;;;;;21.20;19.00;;;11.40;99.90;;;;;;5019566;28;20064;-81
2021/12/29 10:44:49;;;;;;;22.35;19.27;;;11.60;99.90;;;;;;5030738;28;20435;-81
2021/12/29 10:47:45;;;;;;;20.73;18.38;;;11.70;99.90;;;;;;5034749;28;20060;-80
2021/12/29 10:50:14;;;;;;;22.38;18.90;;;11.70;99.90;;;;;;5029129;28;20098;-81
2021/12/29 10:52:51;;;;;;;25.90;19.75;;;11.60;99.90;;;;;;5026619;28;20044;-81
2021/12/29 10:55:33;;;;;;;25.77;21.38;;;11.70;99.90;;;;;;5038172;28;20025;-81
2021/12/29 10:58:09;;;;;;;23.35;19.40;;;11.70;99.90;;;;;;5042156;28;20518;-81
2021/12/29 11:00:38;;;;;;;25.92;19.48;;;11.50;99.90;;;;;;5021943;28;20368;-81
2021/12/29 11:03:12;;;;;;;25.15;20.58;;;11.30;99.90;;;;;;5032178;28;20052;-81
2021/12/29 11:05:41;;;;;;;28.35;21.98;;;11.00;99.90;;;;;;5036733;28;20021;-82
2021/12/29 11:08:12;;;;;;;29.08;23.83;;;10.90;99.90;;;;;;5014894;28;20029;-82
2021/12/29 11:10:38;;;;;;;25.35;21.20;;;10.80;99.90;;;;;;5030371;28;20045;-81
2021/12/29 11:13:04;;;;;;;25.65;22.67;;;10.80;99.90;;;;;;5028195;28;20076;-80
2021/12/29 11:15:36;;;;;;;29.88;23.90;;;10.80;99.90;;;;;;5019173;28;20111;-82
2021/12/29 11:18:06;;;;;;;27.95;22.70;;;10.80;99.90;;;;;;5017696;28;20076;-80
2021/12/29 11:20:34;;;;;;;;;;;10.70;99.90;;;;;;5031575;28;20415;-80
2021/12/29 11:23:16;;;;;;;25.85;22.30;;;10.70;99.90;;;;;;5023712;28;20324;-80
2021/12/29 11:25:44;;;;;;;28.20;19.73;;;10.70;99.90;;;;;;5038754;28;20072;-81
2021/12/29 11:28:29;;;;;;;25.92;20.52;;;10.70;99.90;;;;;;5025373;28;20106;-82
2021/12/29 11:30:56;;;;;;;23.02;20.20;;;10.60;99.90;;;;;;5035219;28;20021;-81
2021/12/29 11:33:25;;;;;;;27.05;20.92;;;10.60;99.90;;;;;;5024777;28;20127;-81
2021/12/29 11:35:53;;;;;;;23.20;19.02;;;10.70;99.90;;;;;;5033515;28;20035;-81
2021/12/29 11:38:22;;;;;;;22.75;18.48;;;10.90;99.90;;;;;;5040768;28;20021;-81
2021/12/29 11:40:51;;;;;;;23.73;18.85;;;11.00;99.90;;;;;;5042800;28;20032;-81
2021/12/29 11:43:23;;;;;;;21.80;16.50;;;11.20;99.90;;;;;;5028152;28;20022;-81
2021/12/29 11:45:51;;;;;;;24.50;18.27;;;11.20;99.90;;;;;;5031796;28;20029;-82
2021/12/29 11:48:21;;;;;;;23.67;17.48;;;11.30;99.90;;;;;;5034886;28;20487;-82
2021/12/29 11:50:57;;;;;;;22.38;18.27;;;11.40;99.90;;;;;;5026807;28;20048;-82
2021/12/29 11:53:47;;;;;;;24.27;18.73;;;11.40;99.90;;;;;;5030335;28;20053;-81
2021/12/29 11:56:17;;;;;;;24.05;18.48;;;11.30;99.90;;;;;;5040801;28;20033;-82
2021/12/29 11:58:48;;;;;;;24.05;20.90;;;11.10;99.90;;;;;;5032951;28;20048;-82
2021/12/29 12:01:23;;;;;;;25.67;19.80;;;11.00;99.90;;;;;;5031535;28;20036;-83
2021/12/29 12:03:54;;;;;;;25.98;19.02;;;11.10;99.90;;;;;;5023256;28;20036;-81
2021/12/29 12:06:34;;;;;;;19.95;17.52;;;11.30;99.90;;;;;;5040467;28;20610;-82
2021/12/29 12:09:25;;;;;;;21.00;17.58;;;11.40;99.90;;;;;;5042321;28;20227;-81
2021/12/29 12:11:52;;;;;;;24.80;19.13;;;11.40;99.90;;;;;;5043227;28;20160;-84
2021/12/29 12:14:19;;;;;;;23.90;18.17;;;11.30;99.90;;;;;;5029055;28;20034;-80
2021/12/29 12:16:50;;;;;;;22.65;18.30;;;11.20;99.90;;;;;;5031404;28;20098;-81
2021/12/29 12:19:21;;;;;;;22.00;17.20;;;11.20;99.90;;;;;;5015581;28;20045;-80
2021/12/29 12:21:48;;;;;;;18.55;15.27;;;11.20;99.90;;;;;;5032351;28;20025;-80
2021/12/29 12:24:20;;;;;;;20.73;15.05;;;11.00;99.90;;;;;;5024071;28;20092;-81
2021/12/29 12:27:15;;;;;;;19.58;15.13;;;10.90;99.90;;;;;;5014680;28;20499;-82
2021/12/29 12:30:05;;;;;;;16.55;12.65;;;10.80;99.90;;;;;;5016706;28;20496;-80
2021/12/29 12:32:58;;;;;;;16.77;12.13;;;10.80;99.90;;;;;;5001458;28;20136;-80
2021/12/29 12:35:51;;;;;;;12.00;10.32;;;10.70;99.90;;;;;;5008013;28;20109;-81
2021/12/29 12:38:28;;;;;;;13.60;8.48;;;10.60;99.90;;;;;;5004788;28;20034;-80
2021/12/29 12:41:18;;;;;;;9.52;6.25;;;10.90;99.90;;;;;;4988307;28;20179;-81
2021/12/29 12:44:00;;;;;;;7.15;6.25;;;11.90;99.90;;;;;;5008068;28;20025;-81
2021/12/29 12:46:35;;;;;;;7.03;5.68;;;11.80;99.90;;;;;;5021272;28;20057;-80
2021/12/29 12:49:16;;;;;;;5.72;4.88;;;11.60;99.90;;;;;;5003384;28;20039;-80
2021/12/29 12:52:03;;;;;;;6.57;5.55;;;11.30;99.90;;;;;;5027162;28;20037;-81
2021/12/29 12:54:34;;;;;;;6.38;4.57;;;11.20;99.90;;;;;;4994888;28;20122;-82
2021/12/29 12:57:00;;;;;;;4.32;3.83;;;11.70;99.90;;;;;;5002233;28;20053;-83
2021/12/29 12:59:41;;;;;;;4.80;4.20;;;12.10;99.90;;;;;;5009397;28;20104;-81
2021/12/29 13:02:22;;;;;;;7.00;5.60;;;11.90;99.90;;;;;;5015926;28;20033;-81
2021/12/29 13:05:12;;;;;;;9.80;7.38;;;11.60;99.90;;;;;;5005098;28;20033;-80
2021/12/29 13:07:55;;;;;;;8.48;7.50;;;11.40;99.90;;;;;;5014953;28;20512;-81
2021/12/29 13:10:24;;;;;;;;;;;11.60;99.90;;;;;;5022838;28;20072;-81
2021/12/29 13:12:57;;;;;;;13.50;11.43;;;12.90;99.90;;;;;;5013418;28;19912;-81
2021/12/29 13:15:24;;;;;;;14.18;12.68;;;13.30;99.90;;;;;;5014941;28;20033;-81
2021/12/29 13:17:50;;;;;;;16.15;11.55;;;13.40;99.90;;;;;;5028892;28;20026;-80
2021/12/29 13:20:19;;;;;;;19.15;12.77;;;13.40;99.90;;;;;;5019703;28;20132;-82
2021/12/29 13:22:46;;;;;;;14.90;12.40;;;13.60;99.90;;;;;;5010858;28;20264;-81
2021/12/29 13:25:18;;;;;;;17.60;15.57;;;13.50;99.90;;;;;;5001002;28;20648;-82
2021/12/29 13:27:55;;;;;;;19.25;16.33;;;13.40;99.90;;;;;;5013909;28;20105;-81
2021/12/29 13:30:24;;;;;;;21.67;16.58;;;12.90;99.90;;;;;;5015707;28;20044;-81
2021/12/29 13:32:55;;;;;;;16.92;14.55;;;12.80;99.90;;;;;;5020176;28;20524;-80
2021/12/29 13:35:28;;;;;;;21.40;16.03;;;12.80;99.90;;;;;;5012483;28;20054;-81
2021/12/29 13:38:07;;;;;;;20.02;15.75;;;12.40;99.90;;;;;;5029248;28;20053;-81
2021/12/29 13:40:35;;;;;;;20.95;16.50;;;11.90;99.90;;;;;;5023679;28;20045;-81
2021/12/29 13:43:12;;;;;;;20.25;15.45;;;11.80;99.90;;;;;;4990356;28;20030;-82
2021/12/29 13:45:47;;;;;;;20.25;14.85;;;12.00;99.90;;;;;;5018234;28;20040;-81
2021/12/29 13:48:18;;;;;;;17.98;15.07;;;12.10;99.90;;;;;;5012585;28;20442;-81
2021/12/29 13:51:05;;;;;;;17.73;14.55;;;11.90;99.90;;;;;;5017137;28;20083;-81
2021/12/29 13:53:38;;;;;;;17.42;15.45;;;11.80;99.90;;;;;;5030288;28;20037;-81
2021/12/29 13:56:19;;;;;;;18.85;15.25;;;11.70;99.90;;;;;;5015603;28;20053;-81
2021/12/29 13:59:00;;;;;;;20.67;17.17;;;11.50;99.90;;;;;;5028289;28;20027;-81
2021/12/29 14:01:56;;;;;;;17.42;15.50;;;11.30;99.90;;;;;;5022823;28;20026;-81
2021/12/29 14:04:31;;;;;;;19.10;16.67;;;11.10;99.90;;;;;;5000161;28;20057;-81
2021/12/29 14:06:59;;;;;;;19.92;14.70;;;10.90;99.90;;;;;;5021271;28;20060;-80
2021/12/29 14:09:30;;;;;;;17.50;14.45;;;10.80;99.90;;;;;;5027848;28;20033;-81
2021/12/29 14:12:16;;;;;;;17.85;12.35;;;10.80;99.90;;;;;;5020914;28;20033;-81
2021/12/29 14:14:44;;;;;;;19.50;14.02;;;10.80;99.90;;;;;;5021653;28;20026;-80
2021/12/29 14:17:18;;;;;;;14.75;12.68;;;10.90;99.90;;;;;;4999927;28;20025;-81
2021/12/29 14:19:45;;;;;;;15.10;11.48;;;11.10;99.90;;;;;;4996975;28;20531;-80
2021/12/29 14:22:24;;;;;;;17.98;12.70;;;11.00;99.90;;;;;;5004798;28;20061;-81
2021/12/29 14:24:50;;;;;;;14.07;11.13;;;11.00;99.90;;;;;;5023440;28;20057;-81
2021/12/29 14:27:47;;;;;;;13.98;12.50;;;11.00;99.90;;;;;;5009748;28;20233;-80
2021/12/29 14:30:21;;;;;;;14.30;12.73;;;10.80;99.90;;;;;;5018925;28;20373;-81
2021/12/29 14:32:59;;;;;;;18.05;13.55;;;10.70;99.90;;;;;;5012169;28;20052;-80
2021/12/29 14:35:26;;;;;;;15.65;13.68;;;10.60;99.90;;;;;;5000309;28;20084;-81